sensor_id;sensor_type;location;lat;lon;timestamp;P1;durP1;ratioP1;P2;durP2;ratioP2
7340;SDS011;6870;50.944;6.932;2024-02-21T00:00:03;5.17;;;3.00;;
7340;SDS011;6870;50.944;6.932;2024-02-21T00:02:33;6.97;;;2.77;;
7340;SDS011;6870;50.944;6.932;2024-02-21T00:05:01;3.80;;;2.93;;
7340;SDS011;6870;50.944;6.932;2024-02-21T00:07:31;4.10;;;2.80;;
7340;SDS011;6870;50.944;6.932;2024-02-21T00:09:59;5.60;;;3.00;;
7340;SDS011;6870;50.944;6.932;2024-02-21T00:12:27;4.20;;;2.80;;
7340;SDS011;6870;50.944;6.932;2024-02-21T00:14:55;3.30;;;2.43;;
7340;SDS011;6870;50.944;6.932;2024-02-21T00:17:23;4.73;;;3.10;;
7340;SDS011;6870;50.944;6.932;2024-02-21T00:19:52;4.63;;;2.70;;
7340;SDS011;6870;50.944;6.932;2024-02-21T00:22:23;4.43;;;2.70;;
7340;SDS011;6870;50.944;6.932;2024-02-21T00:24:56;4.27;;;2.43;;
7340;SDS011;6870;50.944;6.932;2024-02-21T00:27:25;3.90;;;2.63;;
7340;SDS011;6870;50.944;6.932;2024-02-21T00:29:53;3.83;;;2.57;;
7340;SDS011;6870;50.944;6.932;2024-02-21T00:32:21;2.93;;;2.30;;
7340;SDS011;6870;50.944;6.932;2024-02-21T00:34:49;3.30;;;2.40;;
7340;SDS011;6870;50.944;6.932;2024-02-21T00:37:20;5.20;;;2.80;;
7340;SDS011;6870;50.944;6.932;2024-02-21T00:39:48;4.17;;;2.57;;
7340;SDS011;6870;50.944;6.932;2024-02-21T00:42:17;4.13;;;3.13;;
7340;SDS011;6870;50.944;6.932;2024-02-21T00:44:49;4.03;;;2.10;;
7340;SDS011;6870;50.944;6.932;2024-02-21T00:47:17;5.57;;;2.97;;
7340;SDS011;6870;50.944;6.932;2024-02-21T00:49:45;4.43;;;2.60;;
7340;SDS011;6870;50.944;6.932;2024-02-21T00:52:13;2.77;;;2.40;;
7340;SDS011;6870;50.944;6.932;2024-02-21T00:54:41;2.60;;;2.40;;
7340;SDS011;6870;50.944;6.932;2024-02-21T00:57:20;3.20;;;2.07;;
7340;SDS011;6870;50.944;6.932;2024-02-21T00:59:48;3.97;;;2.37;;
7340;SDS011;6870;50.944;6.932;2024-02-21T01:02:16;4.30;;;2.67;;
7340;SDS011;6870;50.944;6.932;2024-02-21T01:04:45;4.10;;;2.20;;
7340;SDS011;6870;50.944;6.932;2024-02-21T01:07:13;5.17;;;2.60;;
7340;SDS011;6870;50.944;6.932;2024-02-21T01:09:41;3.40;;;2.73;;
7340;SDS011;6870;50.944;6.932;2024-02-21T01:12:09;3.97;;;2.70;;
7340;SDS011;6870;50.944;6.932;2024-02-21T01:14:38;3.20;;;2.40;;
7340;SDS011;6870;50.944;6.932;2024-02-21T01:17:06;3.50;;;2.53;;
7340;SDS011;6870;50.944;6.932;2024-02-21T01:19:34;2.77;;;1.90;;
7340;SDS011;6870;50.944;6.932;2024-02-21T01:22:03;5.43;;;3.00;;
7340;SDS011;6870;50.944;6.932;2024-02-21T01:24:31;4.40;;;2.63;;
7340;SDS011;6870;50.944;6.932;2024-02-21T01:26:59;5.27;;;2.83;;
7340;SDS011;6870;50.944;6.932;2024-02-21T01:29:27;2.57;;;2.07;;
7340;SDS011;6870;50.944;6.932;2024-02-21T01:31:57;3.50;;;2.30;;
7340;SDS011;6870;50.944;6.932;2024-02-21T01:34:25;6.23;;;2.50;;
7340;SDS011;6870;50.944;6.932;2024-02-21T01:36:58;6.20;;;2.60;;
7340;SDS011;6870;50.944;6.932;2024-02-21T01:39:30;2.80;;;2.13;;
7340;SDS011;6870;50.944;6.932;2024-02-21T01:41:58;3.00;;;2.63;;
7340;SDS011;6870;50.944;6.932;2024-02-21T01:44:28;3.00;;;2.10;;
7340;SDS011;6870;50.944;6.932;2024-02-21T01:46:58;4.73;;;2.50;;
7340;SDS011;6870;50.944;6.932;2024-02-21T01:49:26;2.70;;;2.20;;
7340;SDS011;6870;50.944;6.932;2024-02-21T01:52:00;3.37;;;1.90;;
7340;SDS011;6870;50.944;6.932;2024-02-21T01:54:29;2.53;;;1.97;;
7340;SDS011;6870;50.944;6.932;2024-02-21T01:57:00;2.63;;;2.03;;
7340;SDS011;6870;50.944;6.932;2024-02-21T01:59:32;2.53;;;2.00;;
7340;SDS011;6870;50.944;6.932;2024-02-21T02:02:03;2.83;;;2.33;;
7340;SDS011;6870;50.944;6.932;2024-02-21T02:04:32;2.30;;;1.90;;
7340;SDS011;6870;50.944;6.932;2024-02-21T02:07:02;2.40;;;2.10;;
7340;SDS011;6870;50.944;6.932;2024-02-21T02:09:32;3.97;;;2.17;;
7340;SDS011;6870;50.944;6.932;2024-02-21T02:12:00;3.57;;;2.33;;
7340;SDS011;6870;50.944;6.932;2024-02-21T02:14:30;5.30;;;2.13;;
7340;SDS011;6870;50.944;6.932;2024-02-21T02:16:57;4.13;;;2.03;;
7340;SDS011;6870;50.944;6.932;2024-02-21T02:19:29;2.97;;;2.50;;
7340;SDS011;6870;50.944;6.932;2024-02-21T02:22:00;5.60;;;2.47;;
7340;SDS011;6870;50.944;6.932;2024-02-21T02:24:39;3.93;;;2.50;;
7340;SDS011;6870;50.944;6.932;2024-02-21T02:27:07;3.43;;;2.60;;
7340;SDS011;6870;50.944;6.932;2024-02-21T02:29:35;5.37;;;2.30;;
7340;SDS011;6870;50.944;6.932;2024-02-21T02:32:05;2.50;;;2.00;;
7340;SDS011;6870;50.944;6.932;2024-02-21T02:34:33;2.47;;;1.90;;
7340;SDS011;6870;50.944;6.932;2024-02-21T02:37:01;2.30;;;1.83;;
7340;SDS011;6870;50.944;6.932;2024-02-21T02:39:30;2.70;;;2.10;;
7340;SDS011;6870;50.944;6.932;2024-02-21T02:42:02;3.83;;;2.37;;
7340;SDS011;6870;50.944;6.932;2024-02-21T02:44:32;3.50;;;1.70;;
7340;SDS011;6870;50.944;6.932;2024-02-21T02:47:00;2.87;;;1.97;;
7340;SDS011;6870;50.944;6.932;2024-02-21T02:49:28;3.40;;;2.00;;
7340;SDS011;6870;50.944;6.932;2024-02-21T02:51:56;5.37;;;2.20;;
7340;SDS011;6870;50.944;6.932;2024-02-21T02:54:24;3.70;;;1.97;;
7340;SDS011;6870;50.944;6.932;2024-02-21T02:56:52;3.33;;;2.13;;
7340;SDS011;6870;50.944;6.932;2024-02-21T02:59:21;2.53;;;1.90;;
7340;SDS011;6870;50.944;6.932;2024-02-21T03:01:49;3.97;;;2.27;;
7340;SDS011;6870;50.944;6.932;2024-02-21T03:04:18;2.50;;;2.30;;
7340;SDS011;6870;50.944;6.932;2024-02-21T03:06:46;3.07;;;2.10;;
7340;SDS011;6870;50.944;6.932;2024-02-21T03:09:14;2.70;;;1.70;;
7340;SDS011;6870;50.944;6.932;2024-02-21T03:11:44;2.93;;;2.30;;
7340;SDS011;6870;50.944;6.932;2024-02-21T03:14:14;3.50;;;2.23;;
7340;SDS011;6870;50.944;6.932;2024-02-21T03:16:43;3.40;;;2.10;;
7340;SDS011;6870;50.944;6.932;2024-02-21T03:19:11;2.73;;;1.83;;
7340;SDS011;6870;50.944;6.932;2024-02-21T03:21:41;2.83;;;2.13;;
7340;SDS011;6870;50.944;6.932;2024-02-21T03:24:09;2.40;;;1.97;;
7340;SDS011;6870;50.944;6.932;2024-02-21T03:26:37;2.27;;;1.60;;
7340;SDS011;6870;50.944;6.932;2024-02-21T03:29:06;2.53;;;1.63;;
7340;SDS011;6870;50.944;6.932;2024-02-21T03:31:35;7.30;;;1.90;;
7340;SDS011;6870;50.944;6.932;2024-02-21T03:34:04;4.33;;;1.73;;
7340;SDS011;6870;50.944;6.932;2024-02-21T03:36:32;2.67;;;1.87;;
7340;SDS011;6870;50.944;6.932;2024-02-21T03:39:00;2.50;;;1.80;;
7340;SDS011;6870;50.944;6.932;2024-02-21T03:41:29;2.80;;;1.80;;
7340;SDS011;6870;50.944;6.932;2024-02-21T03:43:57;3.67;;;1.77;;
7340;SDS011;6870;50.944;6.932;2024-02-21T03:46:25;2.90;;;1.70;;
7340;SDS011;6870;50.944;6.932;2024-02-21T03:48:55;3.40;;;2.47;;
7340;SDS011;6870;50.944;6.932;2024-02-21T03:51:24;2.80;;;2.17;;
7340;SDS011;6870;50.944;6.932;2024-02-21T03:53:53;3.40;;;1.70;;
7340;SDS011;6870;50.944;6.932;2024-02-21T03:56:23;2.27;;;1.70;;
7340;SDS011;6870;50.944;6.932;2024-02-21T03:58:51;4.63;;;2.37;;
7340;SDS011;6870;50.944;6.932;2024-02-21T04:01:19;3.10;;;1.70;;
7340;SDS011;6870;50.944;6.932;2024-02-21T04:03:47;2.53;;;1.83;;
7340;SDS011;6870;50.944;6.932;2024-02-21T04:06:15;2.23;;;1.90;;
7340;SDS011;6870;50.944;6.932;2024-02-21T04:08:45;2.20;;;1.60;;
7340;SDS011;6870;50.944;6.932;2024-02-21T04:11:13;3.17;;;1.80;;
7340;SDS011;6870;50.944;6.932;2024-02-21T04:13:41;4.10;;;2.17;;
7340;SDS011;6870;50.944;6.932;2024-02-21T04:16:09;4.37;;;2.00;;
7340;SDS011;6870;50.944;6.932;2024-02-21T04:18:37;2.70;;;1.70;;
7340;SDS011;6870;50.944;6.932;2024-02-21T04:21:07;4.10;;;2.03;;
7340;SDS011;6870;50.944;6.932;2024-02-21T04:23:35;3.00;;;1.83;;
7340;SDS011;6870;50.944;6.932;2024-02-21T04:26:05;2.43;;;1.73;;
7340;SDS011;6870;50.944;6.932;2024-02-21T04:28:33;2.07;;;1.87;;
7340;SDS011;6870;50.944;6.932;2024-02-21T04:31:01;2.10;;;1.60;;
7340;SDS011;6870;50.944;6.932;2024-02-21T04:33:29;2.10;;;1.53;;
7340;SDS011;6870;50.944;6.932;2024-02-21T04:35:57;2.20;;;1.60;;
7340;SDS011;6870;50.944;6.932;2024-02-21T04:38:26;3.87;;;2.07;;
7340;SDS011;6870;50.944;6.932;2024-02-21T04:40:55;4.27;;;1.97;;
7340;SDS011;6870;50.944;6.932;2024-02-21T04:43:26;2.87;;;1.57;;
7340;SDS011;6870;50.944;6.932;2024-02-21T04:45:54;2.27;;;1.67;;
7340;SDS011;6870;50.944;6.932;2024-02-21T04:48:22;1.83;;;1.50;;
7340;SDS011;6870;50.944;6.932;2024-02-21T04:50:50;7.27;;;1.73;;
7340;SDS011;6870;50.944;6.932;2024-02-21T04:53:18;2.13;;;1.43;;
7340;SDS011;6870;50.944;6.932;2024-02-21T04:55:47;2.37;;;1.77;;
7340;SDS011;6870;50.944;6.932;2024-02-21T04:58:15;3.10;;;1.90;;
7340;SDS011;6870;50.944;6.932;2024-02-21T05:00:44;4.90;;;1.90;;
7340;SDS011;6870;50.944;6.932;2024-02-21T05:03:12;3.50;;;1.60;;
7340;SDS011;6870;50.944;6.932;2024-02-21T05:05:40;3.10;;;2.10;;
7340;SDS011;6870;50.944;6.932;2024-02-21T05:08:09;3.00;;;1.93;;
7340;SDS011;6870;50.944;6.932;2024-02-21T05:10:37;2.10;;;1.60;;
7340;SDS011;6870;50.944;6.932;2024-02-21T05:13:05;2.27;;;1.77;;
7340;SDS011;6870;50.944;6.932;2024-02-21T05:15:33;2.27;;;1.50;;
7340;SDS011;6870;50.944;6.932;2024-02-21T05:18:03;2.10;;;1.50;;
7340;SDS011;6870;50.944;6.932;2024-02-21T05:20:32;3.03;;;1.70;;
7340;SDS011;6870;50.944;6.932;2024-02-21T05:23:00;3.20;;;2.00;;
7340;SDS011;6870;50.944;6.932;2024-02-21T05:25:28;1.87;;;1.30;;
7340;SDS011;6870;50.944;6.932;2024-02-21T05:27:56;5.23;;;2.23;;
7340;SDS011;6870;50.944;6.932;2024-02-21T05:30:28;4.77;;;2.13;;
7340;SDS011;6870;50.944;6.932;2024-02-21T05:32:56;4.13;;;2.30;;
7340;SDS011;6870;50.944;6.932;2024-02-21T05:35:26;3.50;;;2.67;;
7340;SDS011;6870;50.944;6.932;2024-02-21T05:37:55;6.30;;;3.63;;
7340;SDS011;6870;50.944;6.932;2024-02-21T05:40:23;3.87;;;2.47;;
7340;SDS011;6870;50.944;6.932;2024-02-21T05:42:51;7.97;;;3.20;;
7340;SDS011;6870;50.944;6.932;2024-02-21T05:45:19;7.17;;;3.10;;
7340;SDS011;6870;50.944;6.932;2024-02-21T05:47:47;14.03;;;3.33;;
7340;SDS011;6870;50.944;6.932;2024-02-21T05:50:16;7.20;;;3.30;;
7340;SDS011;6870;50.944;6.932;2024-02-21T05:52:46;7.23;;;2.97;;
7340;SDS011;6870;50.944;6.932;2024-02-21T05:55:14;7.90;;;2.90;;
7340;SDS011;6870;50.944;6.932;2024-02-21T05:57:42;4.70;;;3.13;;
7340;SDS011;6870;50.944;6.932;2024-02-21T06:00:11;4.30;;;3.27;;
7340;SDS011;6870;50.944;6.932;2024-02-21T06:02:40;6.00;;;2.40;;
7340;SDS011;6870;50.944;6.932;2024-02-21T06:05:08;7.50;;;3.03;;
7340;SDS011;6870;50.944;6.932;2024-02-21T06:07:36;5.90;;;2.93;;
7340;SDS011;6870;50.944;6.932;2024-02-21T06:10:07;6.00;;;3.27;;
7340;SDS011;6870;50.944;6.932;2024-02-21T06:12:36;5.17;;;2.77;;
7340;SDS011;6870;50.944;6.932;2024-02-21T06:15:04;4.27;;;2.60;;
7340;SDS011;6870;50.944;6.932;2024-02-21T06:17:33;3.20;;;1.93;;
7340;SDS011;6870;50.944;6.932;2024-02-21T06:20:05;3.93;;;2.47;;
7340;SDS011;6870;50.944;6.932;2024-02-21T06:22:35;3.70;;;2.60;;
7340;SDS011;6870;50.944;6.932;2024-02-21T06:25:03;7.77;;;2.80;;
7340;SDS011;6870;50.944;6.932;2024-02-21T06:27:33;5.20;;;2.30;;
7340;SDS011;6870;50.944;6.932;2024-02-21T06:30:01;5.23;;;2.90;;
7340;SDS011;6870;50.944;6.932;2024-02-21T06:32:29;4.50;;;2.53;;
7340;SDS011;6870;50.944;6.932;2024-02-21T06:34:57;3.40;;;2.17;;
7340;SDS011;6870;50.944;6.932;2024-02-21T06:37:28;5.20;;;2.67;;
7340;SDS011;6870;50.944;6.932;2024-02-21T06:39:56;4.67;;;2.90;;
7340;SDS011;6870;50.944;6.932;2024-02-21T06:42:24;7.10;;;2.33;;
7340;SDS011;6870;50.944;6.932;2024-02-21T06:44:54;3.70;;;1.93;;
7340;SDS011;6870;50.944;6.932;2024-02-21T06:47:22;5.27;;;2.70;;
7340;SDS011;6870;50.944;6.932;2024-02-21T06:49:50;4.07;;;2.00;;
7340;SDS011;6870;50.944;6.932;2024-02-21T06:52:19;4.80;;;2.50;;
7340;SDS011;6870;50.944;6.932;2024-02-21T06:54:47;3.77;;;2.27;;
7340;SDS011;6870;50.944;6.932;2024-02-21T06:57:15;4.50;;;2.20;;
7340;SDS011;6870;50.944;6.932;2024-02-21T06:59:43;5.00;;;2.80;;
7340;SDS011;6870;50.944;6.932;2024-02-21T07:02:13;2.53;;;1.70;;
7340;SDS011;6870;50.944;6.932;2024-02-21T07:04:41;5.30;;;2.20;;
7340;SDS011;6870;50.944;6.932;2024-02-21T07:07:10;4.33;;;2.47;;
7340;SDS011;6870;50.944;6.932;2024-02-21T07:09:39;3.83;;;2.40;;
7340;SDS011;6870;50.944;6.932;2024-02-21T07:12:08;3.77;;;2.10;;
7340;SDS011;6870;50.944;6.932;2024-02-21T07:14:36;3.57;;;3.03;;
7340;SDS011;6870;50.944;6.932;2024-02-21T07:17:04;3.57;;;2.37;;
7340;SDS011;6870;50.944;6.932;2024-02-21T07:19:33;5.30;;;2.50;;
7340;SDS011;6870;50.944;6.932;2024-02-21T07:22:02;2.73;;;2.20;;
7340;SDS011;6870;50.944;6.932;2024-02-21T07:24:31;3.20;;;2.33;;
7340;SDS011;6870;50.944;6.932;2024-02-21T07:26:59;3.67;;;2.30;;
7340;SDS011;6870;50.944;6.932;2024-02-21T07:29:30;4.17;;;2.40;;
7340;SDS011;6870;50.944;6.932;2024-02-21T07:31:59;3.60;;;2.50;;
7340;SDS011;6870;50.944;6.932;2024-02-21T07:34:27;3.90;;;2.27;;
7340;SDS011;6870;50.944;6.932;2024-02-21T07:36:56;5.57;;;2.63;;
7340;SDS011;6870;50.944;6.932;2024-02-21T07:39:24;5.10;;;2.17;;
7340;SDS011;6870;50.944;6.932;2024-02-21T07:41:53;2.43;;;1.80;;
7340;SDS011;6870;50.944;6.932;2024-02-21T07:44:21;3.17;;;2.47;;
7340;SDS011;6870;50.944;6.932;2024-02-21T07:46:49;4.50;;;1.60;;
7340;SDS011;6870;50.944;6.932;2024-02-21T07:49:17;8.30;;;2.40;;
7340;SDS011;6870;50.944;6.932;2024-02-21T07:51:45;2.80;;;2.10;;
7340;SDS011;6870;50.944;6.932;2024-02-21T07:54:14;7.27;;;2.60;;
7340;SDS011;6870;50.944;6.932;2024-02-21T07:56:45;4.63;;;2.70;;
7340;SDS011;6870;50.944;6.932;2024-02-21T07:59:13;7.83;;;2.20;;
7340;SDS011;6870;50.944;6.932;2024-02-21T08:01:42;9.10;;;2.30;;
7340;SDS011;6870;50.944;6.932;2024-02-21T08:04:11;4.90;;;2.30;;
7340;SDS011;6870;50.944;6.932;2024-02-21T08:06:39;4.70;;;2.67;;
7340;SDS011;6870;50.944;6.932;2024-02-21T08:09:07;6.37;;;2.80;;
7340;SDS011;6870;50.944;6.932;2024-02-21T08:11:37;4.20;;;2.47;;
7340;SDS011;6870;50.944;6.932;2024-02-21T08:14:05;3.90;;;2.43;;
7340;SDS011;6870;50.944;6.932;2024-02-21T08:16:34;5.43;;;2.67;;
7340;SDS011;6870;50.944;6.932;2024-02-21T08:19:03;5.90;;;2.27;;
7340;SDS011;6870;50.944;6.932;2024-02-21T08:21:31;5.80;;;2.50;;
7340;SDS011;6870;50.944;6.932;2024-02-21T08:23:59;2.50;;;1.93;;
7340;SDS011;6870;50.944;6.932;2024-02-21T08:26:27;4.10;;;2.30;;
7340;SDS011;6870;50.944;6.932;2024-02-21T08:28:58;5.47;;;2.33;;
7340;SDS011;6870;50.944;6.932;2024-02-21T08:31:27;3.90;;;1.93;;
7340;SDS011;6870;50.944;6.932;2024-02-21T08:33:57;3.10;;;2.27;;
7340;SDS011;6870;50.944;6.932;2024-02-21T08:36:29;4.50;;;1.83;;
7340;SDS011;6870;50.944;6.932;2024-02-21T08:38:57;4.93;;;2.60;;
7340;SDS011;6870;50.944;6.932;2024-02-21T08:41:25;5.97;;;2.80;;
7340;SDS011;6870;50.944;6.932;2024-02-21T08:44:15;5.50;;;3.03;;
7340;SDS011;6870;50.944;6.932;2024-02-21T08:46:43;4.17;;;2.63;;
7340;SDS011;6870;50.944;6.932;2024-02-21T08:49:13;8.27;;;3.20;;
7340;SDS011;6870;50.944;6.932;2024-02-21T08:51:41;3.33;;;2.40;;
7340;SDS011;6870;50.944;6.932;2024-02-21T08:54:10;5.97;;;2.73;;
7340;SDS011;6870;50.944;6.932;2024-02-21T08:56:38;7.47;;;3.17;;
7340;SDS011;6870;50.944;6.932;2024-02-21T08:59:06;6.17;;;3.03;;
7340;SDS011;6870;50.944;6.932;2024-02-21T09:01:36;6.83;;;2.87;;
7340;SDS011;6870;50.944;6.932;2024-02-21T09:04:04;4.43;;;2.50;;
7340;SDS011;6870;50.944;6.932;2024-02-21T09:06:33;4.63;;;2.50;;
7340;SDS011;6870;50.944;6.932;2024-02-21T09:09:05;4.27;;;2.67;;
7340;SDS011;6870;50.944;6.932;2024-02-21T09:11:34;9.10;;;2.73;;
7340;SDS011;6870;50.944;6.932;2024-02-21T09:14:02;7.03;;;3.53;;
7340;SDS011;6870;50.944;6.932;2024-02-21T09:16:31;4.83;;;2.43;;
7340;SDS011;6870;50.944;6.932;2024-02-21T09:19:01;4.57;;;2.90;;
7340;SDS011;6870;50.944;6.932;2024-02-21T09:21:29;10.97;;;2.43;;
7340;SDS011;6870;50.944;6.932;2024-02-21T09:23:57;4.60;;;2.40;;
7340;SDS011;6870;50.944;6.932;2024-02-21T09:26:26;5.70;;;2.40;;
7340;SDS011;6870;50.944;6.932;2024-02-21T09:28:54;4.47;;;2.83;;
7340;SDS011;6870;50.944;6.932;2024-02-21T09:31:22;3.20;;;2.23;;
7340;SDS011;6870;50.944;6.932;2024-02-21T09:33:50;3.67;;;2.80;;
7340;SDS011;6870;50.944;6.932;2024-02-21T09:36:20;3.30;;;2.20;;
7340;SDS011;6870;50.944;6.932;2024-02-21T09:38:48;4.83;;;2.97;;
7340;SDS011;6870;50.944;6.932;2024-02-21T09:41:16;4.93;;;2.47;;
7340;SDS011;6870;50.944;6.932;2024-02-21T09:43:51;4.77;;;2.80;;
7340;SDS011;6870;50.944;6.932;2024-02-21T09:46:24;5.53;;;2.60;;
7340;SDS011;6870;50.944;6.932;2024-02-21T09:49:04;5.30;;;3.13;;
7340;SDS011;6870;50.944;6.932;2024-02-21T09:51:43;7.50;;;2.40;;
7340;SDS011;6870;50.944;6.932;2024-02-21T09:54:14;4.33;;;2.23;;
7340;SDS011;6870;50.944;6.932;2024-02-21T09:56:44;6.20;;;3.30;;
7340;SDS011;6870;50.944;6.932;2024-02-21T09:59:13;4.50;;;2.50;;
7340;SDS011;6870;50.944;6.932;2024-02-21T10:01:43;3.97;;;2.80;;
7340;SDS011;6870;50.944;6.932;2024-02-21T10:04:13;6.03;;;3.10;;
7340;SDS011;6870;50.944;6.932;2024-02-21T10:06:41;6.00;;;3.33;;
7340;SDS011;6870;50.944;6.932;2024-02-21T10:09:19;3.70;;;2.03;;
7340;SDS011;6870;50.944;6.932;2024-02-21T10:11:49;5.80;;;3.13;;
7340;SDS011;6870;50.944;6.932;2024-02-21T10:14:17;9.20;;;2.37;;
7340;SDS011;6870;50.944;6.932;2024-02-21T10:16:46;7.30;;;2.70;;
7340;SDS011;6870;50.944;6.932;2024-02-21T10:19:16;4.83;;;2.50;;
7340;SDS011;6870;50.944;6.932;2024-02-21T10:21:59;4.60;;;3.00;;
7340;SDS011;6870;50.944;6.932;2024-02-21T10:24:30;6.77;;;2.67;;
7340;SDS011;6870;50.944;6.932;2024-02-21T10:26:59;5.77;;;2.00;;
7340;SDS011;6870;50.944;6.932;2024-02-21T10:29:30;4.90;;;2.50;;
7340;SDS011;6870;50.944;6.932;2024-02-21T10:32:04;5.53;;;2.70;;
7340;SDS011;6870;50.944;6.932;2024-02-21T10:34:34;4.73;;;2.63;;
7340;SDS011;6870;50.944;6.932;2024-02-21T10:37:06;3.17;;;2.03;;
7340;SDS011;6870;50.944;6.932;2024-02-21T10:39:37;4.30;;;2.50;;
7340;SDS011;6870;50.944;6.932;2024-02-21T10:42:06;4.67;;;2.40;;
7340;SDS011;6870;50.944;6.932;2024-02-21T10:44:37;4.50;;;2.47;;
7340;SDS011;6870;50.944;6.932;2024-02-21T10:47:07;6.40;;;3.20;;
7340;SDS011;6870;50.944;6.932;2024-02-21T10:49:38;3.73;;;3.10;;
7340;SDS011;6870;50.944;6.932;2024-02-21T10:52:13;5.90;;;2.67;;
7340;SDS011;6870;50.944;6.932;2024-02-21T10:54:45;3.93;;;2.33;;
7340;SDS011;6870;50.944;6.932;2024-02-21T10:57:17;3.93;;;2.33;;
7340;SDS011;6870;50.944;6.932;2024-02-21T10:59:49;4.70;;;2.47;;
7340;SDS011;6870;50.944;6.932;2024-02-21T11:02:18;4.50;;;2.40;;
7340;SDS011;6870;50.944;6.932;2024-02-21T11:04:47;3.63;;;2.70;;
7340;SDS011;6870;50.944;6.932;2024-02-21T11:07:17;3.70;;;2.77;;
7340;SDS011;6870;50.944;6.932;2024-02-21T11:09:50;3.57;;;2.00;;
7340;SDS011;6870;50.944;6.932;2024-02-21T11:12:19;4.03;;;2.10;;
7340;SDS011;6870;50.944;6.932;2024-02-21T11:14:49;4.13;;;2.90;;
7340;SDS011;6870;50.944;6.932;2024-02-21T11:17:17;3.67;;;2.20;;
7340;SDS011;6870;50.944;6.932;2024-02-21T11:19:47;7.30;;;3.20;;
7340;SDS011;6870;50.944;6.932;2024-02-21T11:22:16;3.93;;;2.80;;
7340;SDS011;6870;50.944;6.932;2024-02-21T11:24:49;5.43;;;3.17;;
7340;SDS011;6870;50.944;6.932;2024-02-21T11:27:18;4.10;;;2.97;;
7340;SDS011;6870;50.944;6.932;2024-02-21T11:29:48;5.57;;;3.30;;
7340;SDS011;6870;50.944;6.932;2024-02-21T11:32:19;4.17;;;3.17;;
7340;SDS011;6870;50.944;6.932;2024-02-21T11:34:54;2.80;;;1.97;;
7340;SDS011;6870;50.944;6.932;2024-02-21T11:37:25;6.10;;;3.10;;
7340;SDS011;6870;50.944;6.932;2024-02-21T11:39:54;5.27;;;3.00;;
7340;SDS011;6870;50.944;6.932;2024-02-21T11:42:23;4.87;;;3.10;;
7340;SDS011;6870;50.944;6.932;2024-02-21T11:44:53;5.57;;;2.50;;
7340;SDS011;6870;50.944;6.932;2024-02-21T11:47:23;4.63;;;3.10;;
7340;SDS011;6870;50.944;6.932;2024-02-21T11:49:51;3.53;;;2.93;;
7340;SDS011;6870;50.944;6.932;2024-02-21T11:52:21;4.17;;;3.10;;
7340;SDS011;6870;50.944;6.932;2024-02-21T11:54:53;5.83;;;3.40;;
7340;SDS011;6870;50.944;6.932;2024-02-21T11:57:31;5.13;;;2.67;;
7340;SDS011;6870;50.944;6.932;2024-02-21T12:00:10;4.67;;;2.63;;
7340;SDS011;6870;50.944;6.932;2024-02-21T12:02:41;5.13;;;3.07;;
7340;SDS011;6870;50.944;6.932;2024-02-21T12:05:09;4.50;;;3.13;;
7340;SDS011;6870;50.944;6.932;2024-02-21T12:07:37;6.40;;;3.43;;
7340;SDS011;6870;50.944;6.932;2024-02-21T12:10:08;5.20;;;3.07;;
7340;SDS011;6870;50.944;6.932;2024-02-21T12:12:37;5.40;;;3.40;;
7340;SDS011;6870;50.944;6.932;2024-02-21T12:15:07;3.63;;;3.20;;
7340;SDS011;6870;50.944;6.932;2024-02-21T12:17:35;4.57;;;3.07;;
7340;SDS011;6870;50.944;6.932;2024-02-21T12:20:05;6.50;;;3.80;;
7340;SDS011;6870;50.944;6.932;2024-02-21T12:22:36;4.27;;;2.73;;
7340;SDS011;6870;50.944;6.932;2024-02-21T12:25:04;7.93;;;3.63;;
7340;SDS011;6870;50.944;6.932;2024-02-21T12:27:44;4.47;;;3.30;;
7340;SDS011;6870;50.944;6.932;2024-02-21T12:30:12;5.07;;;3.50;;
7340;SDS011;6870;50.944;6.932;2024-02-21T12:32:41;5.43;;;3.33;;
7340;SDS011;6870;50.944;6.932;2024-02-21T12:35:09;4.60;;;3.00;;
7340;SDS011;6870;50.944;6.932;2024-02-21T12:37:37;7.77;;;3.77;;
7340;SDS011;6870;50.944;6.932;2024-02-21T12:40:07;5.27;;;4.00;;
7340;SDS011;6870;50.944;6.932;2024-02-21T12:42:40;6.00;;;3.40;;
7340;SDS011;6870;50.944;6.932;2024-02-21T12:45:08;5.63;;;3.87;;
7340;SDS011;6870;50.944;6.932;2024-02-21T12:47:40;6.80;;;4.80;;
7340;SDS011;6870;50.944;6.932;2024-02-21T12:50:08;6.90;;;4.07;;
7340;SDS011;6870;50.944;6.932;2024-02-21T12:52:37;8.93;;;5.03;;
7340;SDS011;6870;50.944;6.932;2024-02-21T12:55:05;5.93;;;3.80;;
7340;SDS011;6870;50.944;6.932;2024-02-21T12:57:39;5.67;;;3.73;;
7340;SDS011;6870;50.944;6.932;2024-02-21T13:00:10;8.13;;;4.83;;
7340;SDS011;6870;50.944;6.932;2024-02-21T13:02:40;5.30;;;4.40;;
7340;SDS011;6870;50.944;6.932;2024-02-21T13:05:12;7.10;;;4.73;;
7340;SDS011;6870;50.944;6.932;2024-02-21T13:07:41;5.47;;;4.60;;
7340;SDS011;6870;50.944;6.932;2024-02-21T13:10:10;6.37;;;5.37;;
7340;SDS011;6870;50.944;6.932;2024-02-21T13:12:38;7.60;;;5.00;;
7340;SDS011;6870;50.944;6.932;2024-02-21T13:15:07;6.63;;;4.73;;
7340;SDS011;6870;50.944;6.932;2024-02-21T13:17:38;8.63;;;5.90;;
7340;SDS011;6870;50.944;6.932;2024-02-21T13:20:06;6.70;;;4.70;;
7340;SDS011;6870;50.944;6.932;2024-02-21T13:22:37;4.57;;;4.00;;
7340;SDS011;6870;50.944;6.932;2024-02-21T13:25:05;5.53;;;4.90;;
7340;SDS011;6870;50.944;6.932;2024-02-21T13:27:36;5.83;;;4.67;;
7340;SDS011;6870;50.944;6.932;2024-02-21T13:30:04;6.37;;;4.93;;
7340;SDS011;6870;50.944;6.932;2024-02-21T13:32:36;6.20;;;4.77;;
7340;SDS011;6870;50.944;6.932;2024-02-21T13:35:04;8.93;;;5.03;;
7340;SDS011;6870;50.944;6.932;2024-02-21T13:37:32;8.10;;;4.93;;
7340;SDS011;6870;50.944;6.932;2024-02-21T13:40:00;5.00;;;4.00;;
7340;SDS011;6870;50.944;6.932;2024-02-21T13:42:30;8.03;;;5.30;;
7340;SDS011;6870;50.944;6.932;2024-02-21T13:44:59;15.10;;;4.60;;
7340;SDS011;6870;50.944;6.932;2024-02-21T13:47:28;6.70;;;4.90;;
7340;SDS011;6870;50.944;6.932;2024-02-21T13:49:56;25.50;;;8.10;;
7340;SDS011;6870;50.944;6.932;2024-02-21T13:52:24;13.43;;;5.70;;
7340;SDS011;6870;50.944;6.932;2024-02-21T13:54:53;16.73;;;5.97;;
7340;SDS011;6870;50.944;6.932;2024-02-21T13:57:21;15.23;;;5.97;;
7340;SDS011;6870;50.944;6.932;2024-02-21T13:59:49;16.17;;;6.23;;
7340;SDS011;6870;50.944;6.932;2024-02-21T14:02:19;16.97;;;5.77;;
7340;SDS011;6870;50.944;6.932;2024-02-21T14:04:47;14.53;;;6.90;;
7340;SDS011;6870;50.944;6.932;2024-02-21T14:07:15;19.50;;;7.20;;
7340;SDS011;6870;50.944;6.932;2024-02-21T14:09:44;8.10;;;5.00;;
7340;SDS011;6870;50.944;6.932;2024-02-21T14:12:12;9.23;;;5.40;;
7340;SDS011;6870;50.944;6.932;2024-02-21T14:14:43;8.03;;;4.13;;
7340;SDS011;6870;50.944;6.932;2024-02-21T14:17:11;15.40;;;5.30;;
7340;SDS011;6870;50.944;6.932;2024-02-21T14:19:41;15.27;;;6.27;;
7340;SDS011;6870;50.944;6.932;2024-02-21T14:22:09;7.77;;;4.70;;
7340;SDS011;6870;50.944;6.932;2024-02-21T14:24:37;11.00;;;4.93;;
7340;SDS011;6870;50.944;6.932;2024-02-21T14:27:05;9.67;;;4.97;;
7340;SDS011;6870;50.944;6.932;2024-02-21T14:29:35;14.00;;;4.23;;
7340;SDS011;6870;50.944;6.932;2024-02-21T14:32:04;10.33;;;4.73;;
7340;SDS011;6870;50.944;6.932;2024-02-21T14:34:33;10.63;;;4.93;;
7340;SDS011;6870;50.944;6.932;2024-02-21T14:37:03;11.60;;;5.20;;
7340;SDS011;6870;50.944;6.932;2024-02-21T14:39:31;8.40;;;5.30;;
7340;SDS011;6870;50.944;6.932;2024-02-21T14:42:03;8.90;;;4.43;;
7340;SDS011;6870;50.944;6.932;2024-02-21T14:44:31;8.00;;;4.50;;
7340;SDS011;6870;50.944;6.932;2024-02-21T14:47:01;7.90;;;4.47;;
7340;SDS011;6870;50.944;6.932;2024-02-21T14:49:30;10.13;;;5.57;;
7340;SDS011;6870;50.944;6.932;2024-02-21T14:51:58;8.17;;;4.73;;
7340;SDS011;6870;50.944;6.932;2024-02-21T14:54:32;14.53;;;4.60;;
7340;SDS011;6870;50.944;6.932;2024-02-21T14:57:00;9.00;;;4.93;;
7340;SDS011;6870;50.944;6.932;2024-02-21T14:59:28;8.30;;;4.60;;
7340;SDS011;6870;50.944;6.932;2024-02-21T15:02:00;12.67;;;5.37;;
7340;SDS011;6870;50.944;6.932;2024-02-21T15:04:29;19.70;;;4.90;;
7340;SDS011;6870;50.944;6.932;2024-02-21T15:06:58;12.37;;;5.90;;
7340;SDS011;6870;50.944;6.932;2024-02-21T15:09:26;10.60;;;5.07;;
7340;SDS011;6870;50.944;6.932;2024-02-21T15:11:56;7.53;;;4.97;;
7340;SDS011;6870;50.944;6.932;2024-02-21T15:14:24;7.83;;;5.50;;
7340;SDS011;6870;50.944;6.932;2024-02-21T15:16:53;9.00;;;5.43;;
7340;SDS011;6870;50.944;6.932;2024-02-21T15:19:21;8.13;;;4.40;;
7340;SDS011;6870;50.944;6.932;2024-02-21T15:21:49;8.30;;;4.73;;
7340;SDS011;6870;50.944;6.932;2024-02-21T15:24:20;7.50;;;5.07;;
7340;SDS011;6870;50.944;6.932;2024-02-21T15:26:50;8.77;;;5.70;;